Time,TemperatureF,DewpointF,PressureIn,WindDirection,WindDirectionDegrees,WindSpeedMPH,WindSpeedGustMPH,Humidity,HourlyPrecipIn,Conditions,Clouds,dailyrainin,SoftwareType,DateUTC
2013-01-14 01:39:00,7.7,-9.2,29.78,North,-999,-999.0,-999.0,45,0.00,,,0.00,meteohub,2013-01-14 07:39:00,
2013-01-14 05:49:00,5.2,-11.6,29.81,North,-999,-999.0,-999.0,45,0.00,,,0.00,meteohub,2013-01-14 11:49:00,
2013-01-14 05:54:00,5.4,-11.4,29.81,North,-999,-999.0,-999.0,45,0.00,,,0.00,meteohub,2013-01-14 11:54:00,
2013-01-14 07:29:00,7.2,-9.8,29.81,North,-999,-999.0,-999.0,45,0.00,,,0.00,meteohub,2013-01-14 13:29:00,
2013-01-14 07:35:00,7.3,-9.6,29.81,North,-999,-999.0,-999.0,45,0.00,,,0.00,meteohub,2013-01-14 13:35:00,
2013-01-14 07:47:00,7.5,-9.4,29.81,North,-999,-999.0,-999.0,45,0.00,,,0.00,meteohub,2013-01-14 13:47:00,
2013-01-14 07:52:00,7.5,-9.4,29.81,North,-999,-999.0,-999.0,45,0.00,,,0.00,meteohub,2013-01-14 13:52:00,
2013-01-14 07:57:00,7.5,-9.4,29.81,North,-999,-999.0,-999.0,45,0.00,,,0.00,meteohub,2013-01-14 13:57:00,
2013-01-14 08:02:00,7.7,-9.2,29.81,North,-999,-999.0,-999.0,45,0.00,,,0.00,meteohub,2013-01-14 14:02:00,
2013-01-14 08:07:00,7.7,-9.2,29.81,North,-999,-999.0,-999.0,45,0.00,,,0.00,meteohub,2013-01-14 14:07:00,
2013-01-14 08:12:00,8.1,-8.9,29.84,North,-999,-999.0,-999.0,45,0.00,,,0.00,meteohub,2013-01-14 14:12:00,
2013-01-14 08:17:00,8.4,-8.5,29.84,North,-999,-999.0,-999.0,45,0.00,,,0.00,meteohub,2013-01-14 14:17:00,
2013-01-14 08:22:00,8.8,-8.1,29.84,North,-999,-999.0,-999.0,45,0.00,,,0.00,meteohub,2013-01-14 14:22:00,
2013-01-14 08:27:00,9.3,-7.8,29.84,North,-999,-999.0,-999.0,45,0.00,,,0.00,meteohub,2013-01-14 14:27:00,
2013-01-14 08:32:00,9.9,-7.2,29.84,North,-999,-999.0,-999.0,45,0.00,,,0.00,meteohub,2013-01-14 14:32:00,
2013-01-14 08:37:00,10.2,-6.9,29.84,North,-999,-999.0,-999.0,45,0.00,,,0.00,meteohub,2013-01-14 14:37:00,
2013-01-14 08:42:00,10.8,-6.3,29.84,North,-999,-999.0,-999.0,45,0.00,,,0.00,meteohub,2013-01-14 14:42:00,
2013-01-14 08:47:00,11.3,-6.0,29.84,North,-999,-999.0,-999.0,45,0.00,,,0.00,meteohub,2013-01-14 14:47:00,
2013-01-14 08:52:00,11.8,-5.4,29.84,North,-999,-999.0,-999.0,45,0.00,,,0.00,meteohub,2013-01-14 14:52:00,
2013-01-14 08:57:00,12.6,-4.7,29.87,North,-999,-999.0,-999.0,45,0.00,,,0.00,meteohub,2013-01-14 14:57:00,
2013-01-14 09:02:00,12.9,-4.4,29.87,North,-999,-999.0,-999.0,45,0.00,,,0.00,meteohub,2013-01-14 15:02:00,
2013-01-14 09:07:00,13.5,-4.0,29.87,North,-999,-999.0,-999.0,45,0.00,,,0.00,meteohub,2013-01-14 15:07:00,
2013-01-14 09:12:00,14.0,-3.5,29.87,North,-999,-999.0,-999.0,45,0.00,,,0.00,meteohub,2013-01-14 15:12:00,
2013-01-14 09:17:00,14.5,-2.9,29.87,North,-999,-999.0,-999.0,45,0.00,,,0.00,meteohub,2013-01-14 15:17:00,
2013-01-14 09:22:00,14.9,-2.6,29.87,North,-999,-999.0,-999.0,45,0.00,,,0.00,meteohub,2013-01-14 15:22:00,
2013-01-14 09:27:00,14.9,-2.6,29.87,North,-999,-999.0,-999.0,45,0.00,,,0.00,meteohub,2013-01-14 15:27:00,
2013-01-14 09:32:00,15.1,-2.9,29.87,North,-999,-999.0,-999.0,44,0.00,,,0.00,meteohub,2013-01-14 15:32:00,
2013-01-14 09:37:00,15.6,-2.4,29.87,North,-999,-999.0,-999.0,44,0.00,,,0.00,meteohub,2013-01-14 15:37:00,
2013-01-14 09:42:00,16.0,-2.0,29.87,North,-999,-999.0,-999.0,44,0.00,,,0.00,meteohub,2013-01-14 15:42:00,
2013-01-14 09:49:00,16.9,-1.3,29.87,North,-999,-999.0,-999.0,44,0.00,,,0.00,meteohub,2013-01-14 15:49:00,
2013-01-14 09:54:00,16.9,-1.3,29.84,North,-999,-999.0,-999.0,44,0.00,,,0.00,meteohub,2013-01-14 15:54:00,
2013-01-14 10:10:00,18.1,-0.6,29.84,North,-999,-999.0,-999.0,43,0.00,,,0.00,meteohub,2013-01-14 16:10:00,
2013-01-14 10:15:00,18.5,-0.2,29.84,North,-999,-999.0,-999.0,43,0.00,,,0.00,meteohub,2013-01-14 16:15:00,
2013-01-14 10:21:00,19.6,0.7,29.84,North,-999,-999.0,-999.0,43,0.00,,,0.00,meteohub,2013-01-14 16:21:00,
2013-01-14 10:26:00,20.8,1.9,29.84,North,-999,-999.0,-999.0,43,0.00,,,0.00,meteohub,2013-01-14 16:26:00,
2013-01-14 10:31:00,21.2,2.1,29.84,North,-999,-999.0,-999.0,43,0.00,,,0.00,meteohub,2013-01-14 16:31:00,
2013-01-14 10:37:00,21.2,2.1,29.84,North,-999,-999.0,-999.0,43,0.00,,,0.00,meteohub,2013-01-14 16:37:00,
2013-01-14 10:42:00,21.4,2.3,29.84,North,-999,-999.0,-999.0,43,0.00,,,0.00,meteohub,2013-01-14 16:42:00,
2013-01-14 10:48:00,21.9,2.8,29.84,North,-999,-999.0,-999.0,43,0.00,,,0.00,meteohub,2013-01-14 16:48:00,
2013-01-14 10:54:00,22.3,3.2,29.84,North,-999,-999.0,-999.0,43,0.00,,,0.00,meteohub,2013-01-14 16:54:00,
2013-01-14 10:59:00,22.3,3.2,29.84,North,-999,-999.0,-999.0,43,0.00,,,0.00,meteohub,2013-01-14 16:59:00,
2013-01-14 11:04:00,22.1,3.0,29.84,North,-999,-999.0,-999.0,43,0.00,,,0.00,meteohub,2013-01-14 17:04:00,
2013-01-14 11:10:00,22.3,3.2,29.84,North,-999,-999.0,-999.0,43,0.00,,,0.00,meteohub,2013-01-14 17:10:00,
2013-01-14 11:15:00,22.5,3.4,29.84,North,-999,-999.0,-999.0,43,0.00,,,0.00,meteohub,2013-01-14 17:15:00,
2013-01-14 11:20:00,22.5,3.4,29.84,North,-999,-999.0,-999.0,43,0.00,,,0.00,meteohub,2013-01-14 17:20:00,
2013-01-14 11:25:00,22.5,3.4,29.84,North,-999,-999.0,-999.0,43,0.00,,,0.00,meteohub,2013-01-14 17:25:00,
2013-01-14 11:33:00,22.6,3.6,29.84,North,-999,-999.0,-999.0,43,0.00,,,0.00,meteohub,2013-01-14 17:33:00,
2013-01-14 11:38:00,22.8,3.7,29.84,North,-999,-999.0,-999.0,43,0.00,,,0.00,meteohub,2013-01-14 17:38:00,
2013-01-14 11:43:00,23.2,3.6,29.84,North,-999,-999.0,-999.0,42,0.00,,,0.00,meteohub,2013-01-14 17:43:00,
2013-01-14 11:48:00,23.2,3.6,29.84,North,-999,-999.0,-999.0,42,0.00,,,0.00,meteohub,2013-01-14 17:48:00,
2013-01-14 11:54:00,23.2,3.6,29.84,North,-999,-999.0,-999.0,42,0.00,,,0.00,meteohub,2013-01-14 17:54:00,
2013-01-14 12:04:00,23.5,3.7,29.81,North,-999,-999.0,-999.0,42,0.00,,,0.00,meteohub,2013-01-14 18:04:00,
2013-01-14 12:11:00,23.5,3.7,29.81,North,-999,-999.0,-999.0,42,0.00,,,0.00,meteohub,2013-01-14 18:11:00,
2013-01-14 12:28:00,24.4,4.6,29.81,North,-999,-999.0,-999.0,42,0.00,,,0.00,meteohub,2013-01-14 18:28:00,
2013-01-14 12:33:00,24.4,4.6,29.81,North,-999,-999.0,-999.0,42,0.00,,,0.00,meteohub,2013-01-14 18:33:00,
2013-01-14 12:39:00,24.4,4.6,29.81,North,-999,-999.0,-999.0,42,0.00,,,0.00,meteohub,2013-01-14 18:39:00,
2013-01-14 12:44:00,24.4,4.6,29.81,North,-999,-999.0,-999.0,42,0.00,,,0.00,meteohub,2013-01-14 18:44:00,
2013-01-14 13:03:00,25.0,5.2,29.81,North,-999,-999.0,-999.0,42,0.00,,,0.00,meteohub,2013-01-14 19:03:00,
2013-01-14 13:09:00,25.3,5.4,29.81,North,-999,-999.0,-999.0,42,0.00,,,0.00,meteohub,2013-01-14 19:09:00,
2013-01-14 13:14:00,25.3,5.4,29.81,North,-999,-999.0,-999.0,42,0.00,,,0.00,meteohub,2013-01-14 19:14:00,
2013-01-14 13:19:00,25.5,5.5,29.81,North,-999,-999.0,-999.0,42,0.00,,,0.00,meteohub,2013-01-14 19:19:00,
2013-01-14 13:24:00,25.7,5.7,29.78,North,-999,-999.0,-999.0,42,0.00,,,0.00,meteohub,2013-01-14 19:24:00,
2013-01-14 13:30:00,25.7,5.7,29.78,North,-999,-999.0,-999.0,42,0.00,,,0.00,meteohub,2013-01-14 19:30:00,
2013-01-14 13:35:00,26.1,6.1,29.78,North,-999,-999.0,-999.0,42,0.00,,,0.00,meteohub,2013-01-14 19:35:00,
2013-01-14 13:40:00,26.4,6.4,29.78,North,-999,-999.0,-999.0,42,0.00,,,0.00,meteohub,2013-01-14 19:40:00,
2013-01-14 13:46:00,26.8,6.3,29.78,North,-999,-999.0,-999.0,41,0.00,,,0.00,meteohub,2013-01-14 19:46:00,
2013-01-14 13:51:00,27.0,6.4,29.78,North,-999,-999.0,-999.0,41,0.00,,,0.00,meteohub,2013-01-14 19:51:00,
2013-01-14 13:56:00,26.8,6.3,29.78,North,-999,-999.0,-999.0,41,0.00,,,0.00,meteohub,2013-01-14 19:56:00,
2013-01-14 14:06:00,27.5,6.8,29.78,North,-999,-999.0,-999.0,41,0.00,,,0.00,meteohub,2013-01-14 20:06:00,
2013-01-14 14:12:00,26.8,6.3,29.78,North,-999,-999.0,-999.0,41,0.00,,,0.00,meteohub,2013-01-14 20:12:00,
2013-01-14 14:17:00,26.2,6.3,29.78,North,-999,-999.0,-999.0,42,0.00,,,0.00,meteohub,2013-01-14 20:17:00,
2013-01-14 14:22:00,26.6,6.6,29.78,North,-999,-999.0,-999.0,42,0.00,,,0.00,meteohub,2013-01-14 20:22:00,
2013-01-14 14:27:00,27.1,6.6,29.78,North,-999,-999.0,-999.0,41,0.00,,,0.00,meteohub,2013-01-14 20:27:00,
2013-01-14 14:33:00,27.5,6.8,29.78,North,-999,-999.0,-999.0,41,0.00,,,0.00,meteohub,2013-01-14 20:33:00,
2013-01-14 14:38:00,27.0,6.4,29.78,North,-999,-999.0,-999.0,41,0.00,,,0.00,meteohub,2013-01-14 20:38:00,
2013-01-14 14:43:00,27.0,6.4,29.78,North,-999,-999.0,-999.0,41,0.00,,,0.00,meteohub,2013-01-14 20:43:00,
2013-01-14 14:48:00,27.9,7.2,29.78,North,-999,-999.0,-999.0,41,0.00,,,0.00,meteohub,2013-01-14 20:48:00,
2013-01-14 14:53:00,28.6,7.9,29.78,North,-999,-999.0,-999.0,41,0.00,,,0.00,meteohub,2013-01-14 20:53:00,
2013-01-14 14:59:00,27.9,7.2,29.78,North,-999,-999.0,-999.0,41,0.00,,,0.00,meteohub,2013-01-14 20:59:00,
2013-01-14 15:04:00,27.9,7.2,29.78,North,-999,-999.0,-999.0,41,0.00,,,0.00,meteohub,2013-01-14 21:04:00,
2013-01-14 15:09:00,28.4,7.7,29.78,North,-999,-999.0,-999.0,41,0.00,,,0.00,meteohub,2013-01-14 21:09:00,
2013-01-14 15:15:00,27.9,7.2,29.78,North,-999,-999.0,-999.0,41,0.00,,,0.00,meteohub,2013-01-14 21:15:00,
2013-01-14 15:20:00,27.1,6.6,29.78,North,-999,-999.0,-999.0,41,0.00,,,0.00,meteohub,2013-01-14 21:20:00,
2013-01-14 15:25:00,27.9,7.2,29.78,North,-999,-999.0,-999.0,41,0.00,,,0.00,meteohub,2013-01-14 21:25:00,
2013-01-14 15:31:00,28.0,7.3,29.78,North,-999,-999.0,-999.0,41,0.00,,,0.00,meteohub,2013-01-14 21:31:00,
2013-01-14 15:36:00,27.9,7.2,29.78,North,-999,-999.0,-999.0,41,0.00,,,0.00,meteohub,2013-01-14 21:36:00,
2013-01-14 15:41:00,27.7,7.0,29.78,North,-999,-999.0,-999.0,41,0.00,,,0.00,meteohub,2013-01-14 21:41:00,
2013-01-14 15:46:00,27.9,7.2,29.78,North,-999,-999.0,-999.0,41,0.00,,,0.00,meteohub,2013-01-14 21:46:00,
2013-01-14 15:52:00,27.7,7.0,29.78,North,-999,-999.0,-999.0,41,0.00,,,0.00,meteohub,2013-01-14 21:52:00,
2013-01-14 15:57:00,27.0,6.4,29.78,North,-999,-999.0,-999.0,41,0.00,,,0.00,meteohub,2013-01-14 21:57:00,
2013-01-14 16:02:00,27.0,6.4,29.78,North,-999,-999.0,-999.0,41,0.00,,,0.00,meteohub,2013-01-14 22:02:00,
2013-01-14 16:07:00,27.3,6.8,29.78,North,-999,-999.0,-999.0,41,0.00,,,0.00,meteohub,2013-01-14 22:07:00,
2013-01-14 16:12:00,27.0,6.4,29.78,North,-999,-999.0,-999.0,41,0.00,,,0.00,meteohub,2013-01-14 22:12:00,
2013-01-14 16:17:00,27.0,6.4,29.78,North,-999,-999.0,-999.0,41,0.00,,,0.00,meteohub,2013-01-14 22:17:00,
2013-01-14 16:22:00,27.0,6.4,29.78,North,-999,-999.0,-999.0,41,0.00,,,0.00,meteohub,2013-01-14 22:22:00,
2013-01-14 19:22:00,18.5,-0.2,29.78,North,-999,-999.0,-999.0,43,0.00,,,0.00,meteohub,2013-01-15 01:22:00,
2013-01-14 19:27:00,18.1,-0.6,29.78,North,-999,-999.0,-999.0,43,0.00,,,0.00,meteohub,2013-01-15 01:27:00,
2013-01-14 19:33:00,18.0,-0.8,29.78,North,-999,-999.0,-999.0,43,0.00,,,0.00,meteohub,2013-01-15 01:33:00,
2013-01-14 20:03:00,17.4,-0.8,29.78,North,-999,-999.0,-999.0,44,0.00,,,0.00,meteohub,2013-01-15 02:03:00,
2013-01-14 20:08:00,17.2,-0.9,29.78,North,-999,-999.0,-999.0,44,0.00,,,0.00,meteohub,2013-01-15 02:08:00,
2013-01-14 20:13:00,17.1,-1.1,29.78,North,-999,-999.0,-999.0,44,0.00,,,0.00,meteohub,2013-01-15 02:13:00,
2013-01-14 20:19:00,17.1,-1.1,29.78,North,-999,-999.0,-999.0,44,0.00,,,0.00,meteohub,2013-01-15 02:19:00,
2013-01-14 20:24:00,16.9,-1.3,29.78,North,-999,-999.0,-999.0,44,0.00,,,0.00,meteohub,2013-01-15 02:24:00,
2013-01-14 20:29:00,16.2,-1.8,29.78,North,-999,-999.0,-999.0,44,0.00,,,0.00,meteohub,2013-01-15 02:29:00,
2013-01-14 20:35:00,15.8,-2.2,29.78,North,-999,-999.0,-999.0,44,0.00,,,0.00,meteohub,2013-01-15 02:35:00,
2013-01-14 20:40:00,15.8,-2.2,29.78,North,-999,-999.0,-999.0,44,0.00,,,0.00,meteohub,2013-01-15 02:40:00,
2013-01-14 20:45:00,15.8,-2.2,29.78,North,-999,-999.0,-999.0,44,0.00,,,0.00,meteohub,2013-01-15 02:45:00,
2013-01-14 20:50:00,15.8,-2.2,29.78,North,-999,-999.0,-999.0,44,0.00,,,0.00,meteohub,2013-01-15 02:50:00,
2013-01-14 20:56:00,15.4,-2.6,29.78,North,-999,-999.0,-999.0,44,0.00,,,0.00,meteohub,2013-01-15 02:56:00,
2013-01-14 21:01:00,15.3,-2.7,29.78,North,-999,-999.0,-999.0,44,0.00,,,0.00,meteohub,2013-01-15 03:01:00,
2013-01-14 21:07:00,14.9,-3.1,29.78,North,-999,-999.0,-999.0,44,0.00,,,0.00,meteohub,2013-01-15 03:07:00,
2013-01-14 21:12:00,14.9,-3.1,29.78,North,-999,-999.0,-999.0,44,0.00,,,0.00,meteohub,2013-01-15 03:12:00,
2013-01-14 21:17:00,14.5,-3.5,29.78,North,-999,-999.0,-999.0,44,0.00,,,0.00,meteohub,2013-01-15 03:17:00,
2013-01-14 21:22:00,14.5,-3.5,29.78,North,-999,-999.0,-999.0,44,0.00,,,0.00,meteohub,2013-01-15 03:22:00,
2013-01-14 21:27:00,14.5,-3.5,29.78,North,-999,-999.0,-999.0,44,0.00,,,0.00,meteohub,2013-01-15 03:27:00,
2013-01-14 21:41:00,14.2,-3.8,29.78,North,-999,-999.0,-999.0,44,0.00,,,0.00,meteohub,2013-01-15 03:41:00,
2013-01-14 21:47:00,14.0,-3.5,29.78,North,-999,-999.0,-999.0,45,0.00,,,0.00,meteohub,2013-01-15 03:47:00,
2013-01-14 21:52:00,13.8,-3.6,29.78,North,-999,-999.0,-999.0,45,0.00,,,0.00,meteohub,2013-01-15 03:52:00,
2013-01-14 21:57:00,13.8,-3.6,29.78,North,-999,-999.0,-999.0,45,0.00,,,0.00,meteohub,2013-01-15 03:57:00,
2013-01-14 22:02:00,13.6,-3.8,29.78,North,-999,-999.0,-999.0,45,0.00,,,0.00,meteohub,2013-01-15 04:02:00,
2013-01-14 22:07:00,13.5,-4.0,29.78,North,-999,-999.0,-999.0,45,0.00,,,0.00,meteohub,2013-01-15 04:07:00,
2013-01-14 22:12:00,13.3,-4.2,29.78,North,-999,-999.0,-999.0,45,0.00,,,0.00,meteohub,2013-01-15 04:12:00,
2013-01-14 22:17:00,12.9,-4.4,29.78,North,-999,-999.0,-999.0,45,0.00,,,0.00,meteohub,2013-01-15 04:17:00,
2013-01-14 22:22:00,12.9,-4.4,29.78,North,-999,-999.0,-999.0,45,0.00,,,0.00,meteohub,2013-01-15 04:22:00,
2013-01-14 22:27:00,12.7,-4.5,29.78,North,-999,-999.0,-999.0,45,0.00,,,0.00,meteohub,2013-01-15 04:27:00,
2013-01-14 22:32:00,12.7,-4.5,29.78,North,-999,-999.0,-999.0,45,0.00,,,0.00,meteohub,2013-01-15 04:32:00,
2013-01-14 22:37:00,12.7,-4.5,29.78,North,-999,-999.0,-999.0,45,0.00,,,0.00,meteohub,2013-01-15 04:37:00,
2013-01-14 22:42:00,12.6,-4.7,29.78,North,-999,-999.0,-999.0,45,0.00,,,0.00,meteohub,2013-01-15 04:42:00,
2013-01-14 22:47:00,12.6,-4.7,29.78,North,-999,-999.0,-999.0,45,0.00,,,0.00,meteohub,2013-01-15 04:47:00,
2013-01-14 22:52:00,12.4,-4.9,29.78,North,-999,-999.0,-999.0,45,0.00,,,0.00,meteohub,2013-01-15 04:52:00,
2013-01-14 22:57:00,12.2,-5.1,29.78,North,-999,-999.0,-999.0,45,0.00,,,0.00,meteohub,2013-01-15 04:57:00,
2013-01-14 23:20:00,11.8,-5.4,29.75,North,-999,-999.0,-999.0,45,0.00,,,0.00,meteohub,2013-01-15 05:20:00,
2013-01-14 23:21:00,11.8,-5.4,29.75,North,-999,-999.0,-999.0,45,0.00,,,0.00,meteohub,2013-01-15 05:21:00,
2013-01-14 23:22:00,11.8,-5.4,29.75,North,-999,-999.0,-999.0,45,0.00,,,0.00,meteohub,2013-01-15 05:22:00,
2013-01-14 23:23:00,11.8,-5.4,29.75,North,-999,-999.0,-999.0,45,0.00,,,0.00,meteohub,2013-01-15 05:23:00,
2013-01-14 23:29:00,11.7,-5.6,29.78,North,-999,-999.0,-999.0,45,0.00,,,0.00,meteohub,2013-01-15 05:29:00,
2013-01-14 23:34:00,11.3,-6.0,29.78,North,-999,-999.0,-999.0,45,0.00,,,0.00,meteohub,2013-01-15 05:34:00,
2013-01-14 23:39:00,11.1,-6.2,29.78,North,-999,-999.0,-999.0,45,0.00,,,0.00,meteohub,2013-01-15 05:39:00,
2013-01-14 23:45:00,11.1,-6.2,29.78,North,-999,-999.0,-999.0,45,0.00,,,0.00,meteohub,2013-01-15 05:45:00,
2013-01-14 23:50:00,11.1,-6.2,29.78,North,-999,-999.0,-999.0,45,0.00,,,0.00,meteohub,2013-01-15 05:50:00,
2013-01-14 23:55:00,11.1,-6.2,29.78,North,-999,-999.0,-999.0,45,0.00,,,0.00,meteohub,2013-01-15 05:55:00,